Time;durP1;ratioP1;P1;durP2;ratioP2;P2;SDS_P1;SDS_P2;PMS_P1;PMS_P2;Temp;Humidity;BMP_temperature;BMP_pressure;BME280_temperature;BME280_humidity;BME280_pressure;Samples;Min_cycle;Max_cycle;Signal;HPM_P1;HPM_P2
2021/03/13 00:01:28;;;;;;;7.72;4.55;;;;;;;;;;5096972;28;20382;-61
2021/03/13 00:03:53;;;;;;;8.23;5.20;;;;;;;;;;5097660;28;20039;-61
2021/03/13 00:06:19;;;;;;;8.75;5.15;;;;;;;;;;5115175;28;20023;-61
2021/03/13 00:08:44;;;;;;;7.50;4.53;;;;;;;;;;5115793;28;20384;-61
2021/03/13 00:11:10;;;;;;;7.00;4.55;;;;;;;;;;5097360;28;20058;-62
2021/03/13 00:13:36;;;;;;;7.97;5.32;;;;;;;;;;5097230;28;20011;-62
2021/03/13 00:16:01;;;;;;;7.53;4.80;;;;;;;;;;5080477;28;20020;-61
2021/03/13 00:18:27;;;;;;;9.15;4.60;;;;;;;;;;5097434;28;20023;-61
2021/03/13 00:20:53;;;;;;;9.63;4.55;;;;;;;;;;5115759;28;20076;-61
2021/03/13 00:23:18;;;;;;;9.57;3.80;;;;;;;;;;5097096;28;20034;-61
2021/03/13 00:25:44;;;;;;;6.90;4.30;;;;;;;;;;5080387;28;20024;-61
2021/03/13 00:28:10;;;;;;;6.63;3.90;;;;;;;;;;5115254;28;20132;-61
2021/03/13 00:30:37;;;;;;;7.82;3.55;;;;;;;;;;5114937;28;20035;-61
2021/03/13 00:33:03;;;;;;;6.85;3.58;;;;;;;;;;5096955;28;20388;-62
2021/03/13 00:35:29;;;;;;;5.35;3.15;;;;;;;;;;5096416;28;20047;-62
2021/03/13 00:37:56;;;;;;;5.38;3.70;;;;;;;;;;5097009;28;20035;-62
2021/03/13 00:40:23;;;;;;;7.40;3.47;;;;;;;;;;5115369;28;20088;-62
2021/03/13 00:42:48;;;;;;;4.93;3.17;;;;;;;;;;5115223;28;20038;-62
2021/03/13 00:45:15;;;;;;;7.20;3.85;;;;;;;;;;5096594;28;20464;-61
2021/03/13 00:47:41;;;;;;;4.88;3.45;;;;;;;;;;5114901;28;20015;-61
2021/03/13 00:50:07;;;;;;;4.28;3.25;;;;;;;;;;5096777;28;20533;-62
2021/03/13 00:52:33;;;;;;;5.53;3.00;;;;;;;;;;5115054;28;20110;-62
2021/03/13 00:54:58;;;;;;;7.20;3.78;;;;;;;;;;5096692;28;20544;-62
2021/03/13 00:57:24;;;;;;;4.10;3.10;;;;;;;;;;5096260;28;20361;-61
2021/03/13 00:59:49;;;;;;;4.40;3.15;;;;;;;;;;5096584;28;20045;-62
2021/03/13 01:02:15;;;;;;;6.30;3.45;;;;;;;;;;5096035;28;20023;-62
2021/03/13 01:04:40;;;;;;;6.40;3.15;;;;;;;;;;5079483;28;20106;-62
2021/03/13 01:07:06;;;;;;;4.78;3.03;;;;;;;;;;5114705;28;20027;-62
2021/03/13 01:09:32;;;;;;;7.07;4.07;;;;;;;;;;5114703;28;20019;-62
2021/03/13 01:11:57;;;;;;;8.57;4.05;;;;;;;;;;5114949;28;20046;-62
2021/03/13 01:14:23;;;;;;;7.63;3.72;;;;;;;;;;5079086;28;20023;-61
2021/03/13 01:16:48;;;;;;;9.85;4.35;;;;;;;;;;5079166;28;20023;-62
2021/03/13 01:19:14;;;;;;;9.57;4.07;;;;;;;;;;5113279;28;20019;-62
2021/03/13 01:21:39;;;;;;;6.85;3.90;;;;;;;;;;5096087;28;20102;-62
2021/03/13 01:24:05;;;;;;;7.47;4.57;;;;;;;;;;5096204;28;20103;-62
2021/03/13 01:26:30;;;;;;;8.07;4.47;;;;;;;;;;5114085;28;20478;-62
2021/03/13 01:28:55;;;;;;;8.18;4.22;;;;;;;;;;5079033;28;20023;-62
2021/03/13 01:31:21;;;;;;;7.30;4.32;;;;;;;;;;5095433;28;20366;-62
2021/03/13 01:33:46;;;;;;;5.60;3.92;;;;;;;;;;5095462;28;20020;-62
2021/03/13 01:36:11;;;;;;;7.55;4.00;;;;;;;;;;5114127;28;20060;-62
2021/03/13 01:38:37;;;;;;;6.13;3.75;;;;;;;;;;5113990;28;20047;-62
2021/03/13 01:41:03;;;;;;;5.35;3.70;;;;;;;;;;5096062;28;20365;-62
2021/03/13 01:43:28;;;;;;;5.88;3.72;;;;;;;;;;5095322;28;20107;-62
2021/03/13 01:45:54;;;;;;;6.60;4.00;;;;;;;;;;5095639;28;20023;-62
2021/03/13 01:48:21;;;;;;;5.75;3.30;;;;;;;;;;5095886;28;20019;-61
2021/03/13 01:50:46;;;;;;;7.03;3.70;;;;;;;;;;5113804;28;20129;-62
2021/03/13 01:53:12;;;;;;;5.18;3.60;;;;;;;;;;5095419;28;20095;-62
2021/03/13 01:55:37;;;;;;;7.63;4.25;;;;;;;;;;5113652;28;20460;-62
2021/03/13 01:58:03;;;;;;;5.85;4.05;;;;;;;;;;5078674;28;20040;-62
2021/03/13 02:00:28;;;;;;;6.97;3.42;;;;;;;;;;5094783;28;20055;-61
2021/03/13 02:02:53;;;;;;;5.55;3.47;;;;;;;;;;5095313;28;20064;-62
2021/03/13 02:05:22;;;;;;;5.13;3.63;;;;;;;;;;5078147;28;20067;-61
2021/03/13 02:07:57;;;;;;;5.53;3.90;;;;;;;;;;5095340;28;20095;-62
2021/03/13 02:10:23;;;;;;;7.10;3.90;;;;;;;;;;5095255;28;20255;-62
2021/03/13 02:12:56;;;;;;;6.53;3.72;;;;;;;;;;5113672;28;20544;-62
2021/03/13 02:15:31;;;;;;;10.38;4.00;;;;;;;;;;5077842;28;20024;-62
2021/03/13 02:18:00;;;;;;;6.00;4.10;;;;;;;;;;5095214;28;20012;-62
2021/03/13 02:20:26;;;;;;;;;;;;;;;;;;5095715;28;20333;-62
2021/03/13 02:22:52;;;;;;;5.20;3.75;;;;;;;;;;5095017;28;19911;-62
2021/03/13 02:25:22;;;;;;;10.80;4.38;;;;;;;;;;5113076;28;20012;-62
2021/03/13 02:27:56;;;;;;;6.60;4.10;;;;;;;;;;5112889;28;20026;-62
2021/03/13 02:30:23;;;;;;;6.03;3.92;;;;;;;;;;5094319;28;20022;-62
2021/03/13 02:32:58;;;;;;;8.98;4.63;;;;;;;;;;5094935;28;20468;-62
2021/03/13 02:35:28;;;;;;;7.28;4.43;;;;;;;;;;5112712;28;20051;-62
2021/03/13 02:37:56;;;;;;;7.20;4.22;;;;;;;;;;5113130;28;20047;-62
2021/03/13 02:40:24;;;;;;;7.57;4.65;;;;;;;;;;5113006;28;20014;-62
2021/03/13 02:42:53;;;;;;;7.65;4.25;;;;;;;;;;5112969;28;20056;-62
2021/03/13 02:45:20;;;;;;;8.38;4.57;;;;;;;;;;5112900;28;20019;-61
2021/03/13 02:47:47;;;;;;;6.00;4.03;;;;;;;;;;5113023;28;20047;-62
2021/03/13 02:50:13;;;;;;;6.18;4.50;;;;;;;;;;5112954;28;20011;-62
2021/03/13 02:52:39;;;;;;;8.00;4.32;;;;;;;;;;5113321;28;20102;-63
2021/03/13 02:55:07;;;;;;;5.57;4.38;;;;;;;;;;5094638;28;20181;-62
2021/03/13 02:57:33;;;;;;;8.68;4.22;;;;;;;;;;5094625;28;20019;-62
2021/03/13 02:59:59;;;;;;;6.65;4.22;;;;;;;;;;5113381;28;20019;-62
2021/03/13 03:02:25;;;;;;;6.72;4.38;;;;;;;;;;5094039;28;20431;-61
2021/03/13 03:04:52;;;;;;;5.90;4.22;;;;;;;;;;5113077;28;20023;-62
2021/03/13 03:07:22;;;;;;;6.78;4.65;;;;;;;;;;5094851;28;20015;-62
2021/03/13 03:09:48;;;;;;;6.72;4.55;;;;;;;;;;5094421;28;20008;-62
2021/03/13 03:12:15;;;;;;;7.68;4.60;;;;;;;;;;5094616;28;20102;-61
2021/03/13 03:14:40;;;;;;;6.18;4.28;;;;;;;;;;5112556;28;20478;-61
2021/03/13 03:17:06;;;;;;;7.63;4.80;;;;;;;;;;5112851;28;20094;-62
2021/03/13 03:19:33;;;;;;;6.32;4.80;;;;;;;;;;5112816;28;20019;-61
2021/03/13 03:22:00;;;;;;;8.27;4.57;;;;;;;;;;5112881;28;20016;-61
2021/03/13 03:24:27;;;;;;;9.80;4.90;;;;;;;;;;5094428;28;20024;-61
2021/03/13 03:26:52;;;;;;;7.05;4.57;;;;;;;;;;5094418;28;20043;-62
2021/03/13 03:29:18;;;;;;;9.85;5.13;;;;;;;;;;5112433;28;20533;-62
2021/03/13 03:31:44;;;;;;;10.65;4.60;;;;;;;;;;5094152;28;20072;-62
2021/03/13 03:34:09;;;;;;;10.48;5.13;;;;;;;;;;5112566;28;20064;-62
2021/03/13 03:36:35;;;;;;;7.55;4.75;;;;;;;;;;5112684;28;20026;-61
2021/03/13 03:39:00;;;;;;;11.18;4.57;;;;;;;;;;5113958;28;20022;-62
2021/03/13 03:41:28;;;;;;;11.00;6.15;;;;;;;;;;5112830;28;20034;-61
2021/03/13 03:43:56;;;;;;;12.65;6.15;;;;;;;;;;5116298;28;20065;-61
2021/03/13 03:46:22;;;;;;;10.73;6.20;;;;;;;;;;5116212;28;20034;-61
2021/03/13 03:48:49;;;;;;;11.23;5.82;;;;;;;;;;5116196;28;20016;-61
2021/03/13 03:51:14;;;;;;;11.68;7.00;;;;;;;;;;5115959;28;20022;-61
2021/03/13 03:53:41;;;;;;;11.82;7.15;;;;;;;;;;5116018;28;20094;-61
2021/03/13 03:56:07;;;;;;;11.75;6.97;;;;;;;;;;5097816;28;20111;-62
2021/03/13 03:58:33;;;;;;;15.50;7.75;;;;;;;;;;5097848;28;20015;-61
2021/03/13 04:00:59;;;;;;;14.35;7.00;;;;;;;;;;5080179;28;20027;-62
2021/03/13 04:03:25;;;;;;;11.60;6.63;;;;;;;;;;5097499;28;20032;-61
2021/03/13 04:05:50;;;;;;;11.98;5.90;;;;;;;;;;5097922;28;20380;-61
2021/03/13 04:08:17;;;;;;;9.10;6.40;;;;;;;;;;5115715;28;20024;-62
2021/03/13 04:10:44;;;;;;;11.98;6.38;;;;;;;;;;5097433;28;20019;-61
2021/03/13 04:13:11;;;;;;;13.30;6.35;;;;;;;;;;5115560;28;20494;-61
2021/03/13 04:15:38;;;;;;;9.05;5.80;;;;;;;;;;5080330;28;20540;-61
2021/03/13 04:18:03;;;;;;;9.90;5.80;;;;;;;;;;5097387;28;20114;-61
2021/03/13 04:20:29;;;;;;;10.88;6.30;;;;;;;;;;5115522;28;20093;-61
2021/03/13 04:22:54;;;;;;;14.00;6.75;;;;;;;;;;5080366;28;20027;-62
2021/03/13 04:25:20;;;;;;;11.50;7.07;;;;;;;;;;5115181;28;20020;-61
2021/03/13 04:27:45;;;;;;;12.68;7.43;;;;;;;;;;5097020;28;20023;-62
2021/03/13 04:30:13;;;;;;;15.93;7.45;;;;;;;;;;5114989;28;20104;-62
2021/03/13 04:32:38;;;;;;;11.63;6.35;;;;;;;;;;5115478;28;20016;-62
2021/03/13 04:35:04;;;;;;;10.18;6.32;;;;;;;;;;5115078;28;20054;-62
2021/03/13 04:37:31;;;;;;;11.00;6.45;;;;;;;;;;5096781;28;20087;-62
2021/03/13 04:39:57;;;;;;;12.00;6.97;;;;;;;;;;5115224;28;20019;-62
2021/03/13 04:42:22;;;;;;;10.65;6.10;;;;;;;;;;5115165;28;20022;-61
2021/03/13 04:44:48;;;;;;;9.32;6.68;;;;;;;;;;5115262;28;20099;-62
2021/03/13 04:47:13;;;;;;;13.85;6.82;;;;;;;;;;5114794;28;20451;-62
2021/03/13 04:49:39;;;;;;;13.45;7.05;;;;;;;;;;5096525;28;20028;-63
2021/03/13 04:52:04;;;;;;;15.63;7.88;;;;;;;;;;5096654;28;20011;-62
2021/03/13 04:54:30;;;;;;;14.48;8.32;;;;;;;;;;5096527;28;20027;-61
2021/03/13 04:56:55;;;;;;;12.05;7.40;;;;;;;;;;5096915;28;20370;-61
2021/03/13 04:59:21;;;;;;;13.60;8.82;;;;;;;;;;5114876;28;20016;-61
2021/03/13 05:01:46;;;;;;;15.45;8.85;;;;;;;;;;5114336;28;20020;-61
2021/03/13 05:04:12;;;;;;;18.35;9.20;;;;;;;;;;5114867;28;20023;-61
2021/03/13 05:06:37;;;;;;;16.08;8.35;;;;;;;;;;5096775;28;20015;-62
2021/03/13 05:09:03;;;;;;;16.60;8.60;;;;;;;;;;5114540;28;20031;-61
2021/03/13 05:11:28;;;;;;;13.93;8.02;;;;;;;;;;5096298;28;20023;-61
2021/03/13 05:13:54;;;;;;;13.15;7.85;;;;;;;;;;5114437;28;20495;-62
2021/03/13 05:16:19;;;;;;;14.75;7.68;;;;;;;;;;5096254;28;20030;-62
2021/03/13 05:18:44;;;;;;;13.85;8.63;;;;;;;;;;5096436;28;20023;-62
2021/03/13 05:21:11;;;;;;;27.08;14.73;;;;;;;;;;5095935;28;20012;-62
2021/03/13 05:23:37;;;;;;;34.58;16.92;;;;;;;;;;5114280;28;20019;-62
2021/03/13 05:26:02;;;;;;;33.63;15.70;;;;;;;;;;5114321;28;20011;-62
2021/03/13 05:28:27;;;;;;;24.42;12.60;;;;;;;;;;5114434;28;20020;-62
2021/03/13 05:30:53;;;;;;;28.00;14.32;;;;;;;;;;5113575;28;20099;-62
2021/03/13 05:33:18;;;;;;;19.88;11.18;;;;;;;;;;5114000;28;20100;-62
2021/03/13 05:35:44;;;;;;;17.33;9.70;;;;;;;;;;5113643;28;20052;-62
2021/03/13 05:38:09;;;;;;;18.80;9.10;;;;;;;;;;5113795;28;20140;-62
2021/03/13 05:40:34;;;;;;;23.33;10.20;;;;;;;;;;5114228;28;20110;-62
2021/03/13 05:43:00;;;;;;;29.15;12.88;;;;;;;;;;5097931;28;20026;-62
2021/03/13 05:45:26;;;;;;;25.15;11.50;;;;;;;;;;5098353;28;20047;-62
2021/03/13 05:47:53;;;;;;;22.02;11.55;;;;;;;;;;5095699;28;20065;-62
2021/03/13 05:50:19;;;;;;;21.95;12.77;;;;;;;;;;5113714;28;20015;-62
2021/03/13 05:52:49;;;;;;;28.00;15.25;;;;;;;;;;5095417;28;20476;-63
2021/03/13 05:55:16;;;;;;;74.85;33.67;;;;;;;;;;5113420;28;20074;-62
2021/03/13 05:57:42;;;;;;;76.18;35.30;;;;;;;;;;5095750;28;20062;-61
2021/03/13 06:00:08;;;;;;;65.88;30.73;;;;;;;;;;5113728;28;20015;-62
2021/03/13 06:02:35;;;;;;;55.35;26.90;;;;;;;;;;5112879;28;20020;-61
2021/03/13 06:05:01;;;;;;;33.47;17.80;;;;;;;;;;5095446;28;20023;-61
2021/03/13 06:07:26;;;;;;;24.10;12.57;;;;;;;;;;5078188;28;20003;-61
2021/03/13 06:09:53;;;;;;;22.27;13.68;;;;;;;;;;5113915;28;20064;-61
2021/03/13 06:12:19;;;;;;;21.13;13.90;;;;;;;;;;5113672;28;20020;-61
2021/03/13 06:14:46;;;;;;;18.48;12.13;;;;;;;;;;5113209;28;20023;-61
2021/03/13 06:17:11;;;;;;;23.85;13.35;;;;;;;;;;5113128;28;20094;-62
2021/03/13 06:19:46;;;;;;;27.60;13.77;;;;;;;;;;5095169;28;20149;-62
2021/03/13 06:22:31;;;;;;;25.92;13.07;;;;;;;;;;5094944;28;20023;-62
2021/03/13 06:25:06;;;;;;;15.70;9.00;;;;;;;;;;5113447;28;20019;-61
2021/03/13 06:27:31;;;;;;;15.23;7.72;;;;;;;;;;5113394;28;20024;-62
2021/03/13 06:30:06;;;;;;;13.98;8.88;;;;;;;;;;5095102;28;20042;-62
2021/03/13 06:32:33;;;;;;;7.57;5.13;;;;;;;;;;5112400;28;20047;-62
2021/03/13 06:35:17;;;;;;;7.85;4.90;;;;;;;;;;5112924;28;20040;-62
2021/03/13 06:37:42;;;;;;;10.10;6.00;;;;;;;;;;5113401;28;20027;-62
2021/03/13 06:40:08;;;;;;;12.35;6.45;;;;;;;;;;5113312;28;20019;-62
2021/03/13 06:42:34;;;;;;;9.30;5.78;;;;;;;;;;5113008;28;20040;-62
2021/03/13 06:45:00;;;;;;;7.80;4.75;;;;;;;;;;5094691;28;20019;-62
2021/03/13 06:47:29;;;;;;;12.68;6.78;;;;;;;;;;5112744;28;20020;-62
2021/03/13 06:50:05;;;;;;;7.63;4.32;;;;;;;;;;5113520;28;20012;-62
2021/03/13 06:52:30;;;;;;;5.82;3.92;;;;;;;;;;5094663;28;20052;-62
2021/03/13 06:54:55;;;;;;;8.35;4.63;;;;;;;;;;5113110;28;20083;-62
2021/03/13 06:57:21;;;;;;;12.75;7.18;;;;;;;;;;5112767;28;20067;-62
2021/03/13 06:59:49;;;;;;;13.60;9.02;;;;;;;;;;5094507;28;20027;-62
2021/03/13 07:02:20;;;;;;;15.50;9.90;;;;;;;;;;5112524;28;20107;-62
2021/03/13 07:04:46;;;;;;;23.98;12.20;;;;;;;;;;5112966;28;20015;-62
2021/03/13 07:07:12;;;;;;;21.25;11.48;;;;;;;;;;5112949;28;20046;-62
2021/03/13 07:09:42;;;;;;;18.40;9.80;;;;;;;;;;5113006;28;20148;-62
2021/03/13 07:12:20;;;;;;;19.15;9.07;;;;;;;;;;5112882;28;20019;-62
2021/03/13 07:14:46;;;;;;;14.70;6.32;;;;;;;;;;5094577;28;20024;-63
2021/03/13 07:17:14;;;;;;;18.52;7.40;;;;;;;;;;5096457;28;20146;-62
2021/03/13 07:19:40;;;;;;;30.02;19.13;;;;;;;;;;5116686;28;20012;-61
2021/03/13 07:22:05;;;;;;;14.60;6.53;;;;;;;;;;5098590;28;20031;-61
2021/03/13 07:24:31;;;;;;;15.82;6.05;;;;;;;;;;5116650;28;20012;-62
2021/03/13 07:26:57;;;;;;;12.68;5.22;;;;;;;;;;5116594;28;20023;-62
2021/03/13 07:29:23;;;;;;;8.55;4.68;;;;;;;;;;5098104;28;20011;-62
2021/03/13 07:31:55;;;;;;;11.23;3.55;;;;;;;;;;5115948;28;20031;-62
2021/03/13 07:34:23;;;;;;;10.80;4.63;;;;;;;;;;5116152;28;20082;-62
2021/03/13 07:36:52;;;;;;;6.75;2.60;;;;;;;;;;5116474;28;20083;-62
2021/03/13 07:39:18;;;;;;;25.98;4.68;;;;;;;;;;5116313;28;20064;-62
2021/03/13 07:41:52;;;;;;;10.95;5.63;;;;;;;;;;5116436;28;20023;-62
2021/03/13 07:44:18;;;;;;;12.43;9.65;;;;;;;;;;5098016;28;20451;-62
2021/03/13 07:46:43;;;;;;;7.47;3.38;;;;;;;;;;5116248;28;20034;-63
2021/03/13 07:49:10;;;;;;;4.90;2.53;;;;;;;;;;5115908;28;20383;-62
2021/03/13 07:51:35;;;;;;;7.05;4.65;;;;;;;;;;5116380;28;20019;-62
2021/03/13 07:54:01;;;;;;;9.40;3.55;;;;;;;;;;5080717;28;20019;-62
2021/03/13 07:56:27;;;;;;;11.82;8.18;;;;;;;;;;5116287;28;20043;-62
2021/03/13 07:58:52;;;;;;;3.72;2.58;;;;;;;;;;5097647;28;20012;-62
2021/03/13 08:01:37;;;;;;;11.82;4.85;;;;;;;;;;5097100;28;20440;-62
2021/03/13 08:04:03;;;;;;;10.63;3.45;;;;;;;;;;5100980;28;20379;-62
2021/03/13 08:06:48;;;;;;;19.92;11.43;;;;;;;;;;5116050;28;20012;-62
2021/03/13 08:09:23;;;;;;;17.23;11.05;;;;;;;;;;5100386;28;20529;-62
2021/03/13 08:11:49;;;;;;;10.32;6.82;;;;;;;;;;5115869;28;20531;-62
2021/03/13 08:14:29;;;;;;;6.53;4.75;;;;;;;;;;5080436;28;20115;-62
2021/03/13 08:16:54;;;;;;;;;;;;;;;;;;5097681;28;20044;-63
2021/03/13 08:19:29;;;;;;;8.70;4.13;;;;;;;;;;5097067;28;19938;-62
2021/03/13 08:22:09;;;;;;;6.18;3.65;;;;;;;;;;5115675;28;20224;-62
2021/03/13 08:24:44;;;;;;;6.75;4.40;;;;;;;;;;5116026;28;20095;-62
2021/03/13 08:27:10;;;;;;;13.70;8.07;;;;;;;;;;5096482;28;20023;-62
2021/03/13 08:29:45;;;;;;;21.98;12.07;;;;;;;;;;5115316;28;20494;-62
2021/03/13 08:32:10;;;;;;;6.43;3.80;;;;;;;;;;5114936;28;20418;-61
2021/03/13 08:34:36;;;;;;;8.25;3.47;;;;;;;;;;5107336;28;20102;-61
2021/03/13 08:37:14;;;;;;;5.18;3.08;;;;;;;;;;5076668;28;20020;-62
2021/03/13 08:39:39;;;;;;;7.00;3.30;;;;;;;;;;5094848;28;20492;-62
2021/03/13 08:42:05;;;;;;;9.55;5.80;;;;;;;;;;5094760;28;20031;-62
2021/03/13 08:44:32;;;;;;;6.90;2.85;;;;;;;;;;5094762;28;20012;-62
2021/03/13 08:46:58;;;;;;;9.30;4.70;;;;;;;;;;5076643;28;20095;-61
2021/03/13 08:49:25;;;;;;;7.40;4.13;;;;;;;;;;5094669;28;20147;-61
2021/03/13 08:52:00;;;;;;;5.43;2.80;;;;;;;;;;5094772;28;20024;-62
2021/03/13 08:54:35;;;;;;;3.88;2.70;;;;;;;;;;5094321;28;20476;-62
2021/03/13 08:57:00;;;;;;;10.23;5.18;;;;;;;;;;5094680;28;20016;-61
2021/03/13 08:59:25;;;;;;;7.70;3.83;;;;;;;;;;5076253;28;20024;-62
2021/03/13 09:02:01;;;;;;;8.27;3.47;;;;;;;;;;5075654;28;20035;-62
2021/03/13 09:04:27;;;;;;;8.88;4.35;;;;;;;;;;5094507;28;20023;-61
2021/03/13 09:06:52;;;;;;;24.17;10.90;;;;;;;;;;5093971;28;20371;-61
2021/03/13 09:09:18;;;;;;;30.60;17.60;;;;;;;;;;5092649;28;20121;-60
2021/03/13 09:11:44;;;;;;;81.30;46.92;;;;;;;;;;5076099;28;20464;-62
2021/03/13 09:14:10;;;;;;;47.80;26.05;;;;;;;;;;5093963;28;20067;-61
2021/03/13 09:16:36;;;;;;;7.43;3.22;;;;;;;;;;5094353;28;20012;-61
2021/03/13 09:19:02;;;;;;;14.18;8.15;;;;;;;;;;5094122;28;20022;-62
2021/03/13 09:21:29;;;;;;;16.23;9.40;;;;;;;;;;5075691;28;20028;-61
2021/03/13 09:23:54;;;;;;;5.32;2.63;;;;;;;;;;5093889;28;20461;-61
2021/03/13 09:26:20;;;;;;;16.48;11.82;;;;;;;;;;5076061;28;20157;-61
2021/03/13 09:28:47;;;;;;;15.18;6.95;;;;;;;;;;5094093;28;20016;-61
2021/03/13 09:31:12;;;;;;;9.65;5.07;;;;;;;;;;5091826;28;20021;-61
2021/03/13 09:33:37;;;;;;;6.30;3.88;;;;;;;;;;5093853;28;20020;-61
2021/03/13 09:36:13;;;;;;;17.10;7.32;;;;;;;;;;5113162;28;20044;-61
2021/03/13 09:38:38;;;;;;;12.55;5.45;;;;;;;;;;5095478;28;20011;-61
2021/03/13 09:41:13;;;;;;;7.07;3.75;;;;;;;;;;5095305;28;20470;-61
2021/03/13 09:43:39;;;;;;;9.88;4.60;;;;;;;;;;5113648;28;20484;-61
2021/03/13 09:46:14;;;;;;;4.78;3.30;;;;;;;;;;5095735;28;20080;-61
2021/03/13 09:48:39;;;;;;;9.00;4.35;;;;;;;;;;5114078;28;20055;-62
2021/03/13 09:51:06;;;;;;;12.65;5.75;;;;;;;;;;5113681;28;20035;-62
2021/03/13 09:53:31;;;;;;;10.23;5.22;;;;;;;;;;5113536;28;20022;-61
2021/03/13 09:55:57;;;;;;;5.03;2.55;;;;;;;;;;5113809;28;20379;-61
2021/03/13 09:58:23;;;;;;;4.28;2.03;;;;;;;;;;5095421;28;20028;-61
2021/03/13 10:00:49;;;;;;;4.88;2.33;;;;;;;;;;5112855;28;20114;-62
2021/03/13 10:03:16;;;;;;;6.20;2.25;;;;;;;;;;5095413;28;20066;-61
2021/03/13 10:05:41;;;;;;;6.57;2.42;;;;;;;;;;5095460;28;20019;-61
2021/03/13 10:08:07;;;;;;;3.42;2.17;;;;;;;;;;5095135;28;20031;-62
2021/03/13 10:10:33;;;;;;;5.95;2.67;;;;;;;;;;5113781;28;20023;-61
2021/03/13 10:12:59;;;;;;;3.90;2.05;;;;;;;;;;5095306;28;20072;-62
2021/03/13 10:15:26;;;;;;;2.88;2.08;;;;;;;;;;5077995;28;20027;-61
2021/03/13 10:17:51;;;;;;;4.07;1.90;;;;;;;;;;5095106;28;20016;-62
2021/03/13 10:20:17;;;;;;;6.35;1.75;;;;;;;;;;5113484;28;20034;-62
2021/03/13 10:22:42;;;;;;;3.45;2.00;;;;;;;;;;5113374;28;20020;-61
2021/03/13 10:25:08;;;;;;;3.78;1.70;;;;;;;;;;5113257;28;20022;-61
2021/03/13 10:27:35;;;;;;;3.30;2.00;;;;;;;;;;5077917;28;20464;-62
2021/03/13 10:30:01;;;;;;;6.97;2.50;;;;;;;;;;5113355;28;20047;-62
2021/03/13 10:32:29;;;;;;;7.05;3.25;;;;;;;;;;5112670;28;20401;-62
2021/03/13 10:35:04;;;;;;;6.47;2.47;;;;;;;;;;5112810;28;20047;-62
2021/03/13 10:37:40;;;;;;;5.70;1.88;;;;;;;;;;5112883;28;20427;-62
2021/03/13 10:40:06;;;;;;;2.55;1.58;;;;;;;;;;5113163;28;20028;-61
2021/03/13 10:42:34;;;;;;;4.13;1.48;;;;;;;;;;5077980;28;20471;-61
2021/03/13 10:45:10;;;;;;;8.32;2.15;;;;;;;;;;5095304;28;20022;-61
2021/03/13 10:47:36;;;;;;;4.32;1.55;;;;;;;;;;5112712;28;20085;-61
2021/03/13 10:50:01;;;;;;;3.33;2.25;;;;;;;;;;5113044;28;20467;-61
2021/03/13 10:52:27;;;;;;;3.40;2.42;;;;;;;;;;5082069;28;20024;-61
2021/03/13 10:54:52;;;;;;;5.47;2.25;;;;;;;;;;5099209;28;20031;-62
2021/03/13 10:57:18;;;;;;;3.72;1.90;;;;;;;;;;5081909;28;20495;-61
2021/03/13 10:59:43;;;;;;;2.13;1.60;;;;;;;;;;5117402;28;20020;-61
2021/03/13 11:02:09;;;;;;;1.92;1.58;;;;;;;;;;5116354;28;20095;-62
2021/03/13 11:04:34;;;;;;;3.97;2.35;;;;;;;;;;5117347;28;20054;-61
2021/03/13 11:07:00;;;;;;;4.22;1.90;;;;;;;;;;5098622;28;20376;-62
2021/03/13 11:09:25;;;;;;;2.92;1.58;;;;;;;;;;5116773;28;20023;-61
2021/03/13 11:11:51;;;;;;;3.72;1.90;;;;;;;;;;5098567;28;20015;-62
2021/03/13 11:14:16;;;;;;;3.65;1.63;;;;;;;;;;5098856;28;20108;-61
2021/03/13 11:16:43;;;;;;;8.02;2.20;;;;;;;;;;5098375;28;20011;-61
2021/03/13 11:19:08;;;;;;;3.45;1.80;;;;;;;;;;5098536;28;20015;-62
2021/03/13 11:21:35;;;;;;;2.58;1.70;;;;;;;;;;5081382;28;20106;-61
2021/03/13 11:24:01;;;;;;;2.10;1.50;;;;;;;;;;5116621;28;20023;-61
2021/03/13 11:26:26;;;;;;;3.33;1.58;;;;;;;;;;5098225;28;20093;-61
2021/03/13 11:28:52;;;;;;;4.65;1.98;;;;;;;;;;5098233;28;20094;-61
2021/03/13 11:31:18;;;;;;;6.93;2.15;;;;;;;;;;5115977;28;20024;-61
2021/03/13 11:33:45;;;;;;;4.80;1.83;;;;;;;;;;5097888;28;20320;-62
2021/03/13 11:36:10;;;;;;;5.13;1.75;;;;;;;;;;5116168;28;20123;-61
2021/03/13 11:38:36;;;;;;;4.40;2.25;;;;;;;;;;5098515;28;20103;-62
2021/03/13 11:41:02;;;;;;;4.07;1.70;;;;;;;;;;5098012;28;20047;-62
2021/03/13 11:43:28;;;;;;;3.38;1.40;;;;;;;;;;5098157;28;20391;-61
2021/03/13 11:45:53;;;;;;;3.13;1.88;;;;;;;;;;5116238;28;20038;-62
2021/03/13 11:48:19;;;;;;;4.13;2.17;;;;;;;;;;5097985;28;20027;-61
2021/03/13 11:50:44;;;;;;;4.60;1.55;;;;;;;;;;5116199;28;20015;-61
2021/03/13 11:53:10;;;;;;;4.53;2.28;;;;;;;;;;5097952;28;20035;-61
2021/03/13 11:55:35;;;;;;;2.72;1.25;;;;;;;;;;5097457;28;20035;-61
2021/03/13 11:58:01;;;;;;;2.63;1.63;;;;;;;;;;5115911;28;20091;-62
2021/03/13 12:00:26;;;;;;;9.27;2.03;;;;;;;;;;5115288;28;20510;-62
2021/03/13 12:02:51;;;;;;;5.30;2.05;;;;;;;;;;5114959;28;20349;-62
2021/03/13 12:05:17;;;;;;;11.23;2.90;;;;;;;;;;5115902;28;20026;-61
2021/03/13 12:07:42;;;;;;;4.47;1.92;;;;;;;;;;5097750;28;20051;-61
2021/03/13 12:10:09;;;;;;;4.78;1.45;;;;;;;;;;5097519;28;20578;-61
2021/03/13 12:12:35;;;;;;;4.05;1.50;;;;;;;;;;5115992;28;20015;-61
2021/03/13 12:15:00;;;;;;;2.60;1.27;;;;;;;;;;5097214;28;20084;-61
2021/03/13 12:17:26;;;;;;;2.53;1.40;;;;;;;;;;5080065;28;20016;-61
2021/03/13 12:19:51;;;;;;;4.60;1.20;;;;;;;;;;5097269;28;20380;-62
2021/03/13 12:22:16;;;;;;;3.95;1.60;;;;;;;;;;5080432;28;20023;-61
2021/03/13 12:24:42;;;;;;;4.15;1.48;;;;;;;;;;5097507;28;20030;-61
2021/03/13 12:27:08;;;;;;;3.70;1.60;;;;;;;;;;5080125;28;20102;-61
2021/03/13 12:29:33;;;;;;;1.83;1.33;;;;;;;;;;5080137;28;20019;-61
2021/03/13 12:31:59;;;;;;;3.03;1.25;;;;;;;;;;5114669;28;20020;-62
2021/03/13 12:34:24;;;;;;;6.85;1.73;;;;;;;;;;5096732;28;20529;-61
2021/03/13 12:36:50;;;;;;;4.13;1.83;;;;;;;;;;5097181;28;20375;-61
2021/03/13 12:39:16;;;;;;;5.10;1.20;;;;;;;;;;5097065;28;20051;-61
2021/03/13 12:41:42;;;;;;;4.65;1.40;;;;;;;;;;5097250;28;20047;-61
2021/03/13 12:44:07;;;;;;;2.30;1.20;;;;;;;;;;5115299;28;20462;-61
2021/03/13 12:46:32;;;;;;;4.30;1.55;;;;;;;;;;5096805;28;20030;-61
2021/03/13 12:48:58;;;;;;;5.68;1.80;;;;;;;;;;5079712;28;20018;-61
2021/03/13 12:51:23;;;;;;;3.50;1.73;;;;;;;;;;5114787;28;20464;-61
2021/03/13 12:53:49;;;;;;;2.53;1.50;;;;;;;;;;5115131;28;20384;-61
2021/03/13 12:56:14;;;;;;;9.57;1.95;;;;;;;;;;5079639;28;20028;-62
2021/03/13 12:58:40;;;;;;;7.13;2.10;;;;;;;;;;5096891;28;20019;-61
2021/03/13 13:01:06;;;;;;;3.95;1.30;;;;;;;;;;5095815;28;20012;-61
2021/03/13 13:03:31;;;;;;;3.70;1.40;;;;;;;;;;5079160;28;20047;-61
2021/03/13 13:05:57;;;;;;;4.60;1.30;;;;;;;;;;5096402;28;20087;-61
2021/03/13 13:08:22;;;;;;;5.35;1.67;;;;;;;;;;5096462;28;20527;-61
2021/03/13 13:10:48;;;;;;;4.57;2.45;;;;;;;;;;5114849;28;20072;-61
2021/03/13 13:13:15;;;;;;;3.53;1.40;;;;;;;;;;5095970;28;20015;-61
2021/03/13 13:15:41;;;;;;;2.03;1.20;;;;;;;;;;5113777;28;20031;-61
2021/03/13 13:18:06;;;;;;;3.33;1.70;;;;;;;;;;5096346;28;20024;-61
2021/03/13 13:20:32;;;;;;;5.68;1.25;;;;;;;;;;5096121;28;20372;-61
2021/03/13 13:22:58;;;;;;;4.63;1.65;;;;;;;;;;5096239;28;20098;-61
2021/03/13 13:25:23;;;;;;;4.15;1.50;;;;;;;;;;5113936;28;20055;-61
2021/03/13 13:27:48;;;;;;;2.10;1.50;;;;;;;;;;5114097;28;20023;-62
2021/03/13 13:30:15;;;;;;;5.28;1.60;;;;;;;;;;5095261;28;20030;-61
2021/03/13 13:32:41;;;;;;;4.22;1.52;;;;;;;;;;5114075;28;20514;-61
2021/03/13 13:35:07;;;;;;;6.25;1.63;;;;;;;;;;5113736;28;20795;-62
2021/03/13 13:37:32;;;;;;;4.05;1.50;;;;;;;;;;5113822;28;20524;-61
2021/03/13 13:39:57;;;;;;;4.40;1.55;;;;;;;;;;5095875;28;20144;-61
2021/03/13 13:42:24;;;;;;;2.67;1.70;;;;;;;;;;5113989;28;20019;-61
2021/03/13 13:44:49;;;;;;;6.72;1.73;;;;;;;;;;5114229;28;20033;-61
2021/03/13 13:47:15;;;;;;;3.35;1.50;;;;;;;;;;5113890;28;20098;-61
2021/03/13 13:49:41;;;;;;;2.00;1.50;;;;;;;;;;5113563;28;20019;-61
2021/03/13 13:52:07;;;;;;;4.45;1.75;;;;;;;;;;5114043;28;20034;-61
2021/03/13 13:54:32;;;;;;;2.28;1.40;;;;;;;;;;5095951;28;20406;-61
2021/03/13 13:56:57;;;;;;;2.10;1.20;;;;;;;;;;5113975;28;20438;-61
2021/03/13 13:59:23;;;;;;;3.53;1.65;;;;;;;;;;5113730;28;20084;-61
2021/03/13 14:01:48;;;;;;;2.38;1.65;;;;;;;;;;5113054;28;20023;-61
2021/03/13 14:04:14;;;;;;;4.32;1.58;;;;;;;;;;5113353;28;20102;-61
2021/03/13 14:06:39;;;;;;;2.78;1.50;;;;;;;;;;5113593;28;20031;-61
2021/03/13 14:09:06;;;;;;;3.20;1.70;;;;;;;;;;5078778;28;20023;-61
2021/03/13 14:11:32;;;;;;;4.90;2.35;;;;;;;;;;5095074;28;20016;-61
2021/03/13 14:13:57;;;;;;;2.92;1.90;;;;;;;;;;5078308;28;20357;-61
2021/03/13 14:16:23;;;;;;;3.85;1.75;;;;;;;;;;5113217;28;20027;-61
2021/03/13 14:18:49;;;;;;;3.38;1.92;;;;;;;;;;5095363;28;20022;-62
2021/03/13 14:21:15;;;;;;;2.55;2.00;;;;;;;;;;5113389;28;20088;-62
2021/03/13 14:23:40;;;;;;;2.28;1.45;;;;;;;;;;5094962;28;20024;-61
2021/03/13 14:26:05;;;;;;;5.28;1.45;;;;;;;;;;5113021;28;20069;-62
2021/03/13 14:28:31;;;;;;;3.85;1.42;;;;;;;;;;5113445;28;20070;-62
2021/03/13 14:30:57;;;;;;;3.92;1.52;;;;;;;;;;5112545;28;20068;-62
2021/03/13 14:33:23;;;;;;;2.58;1.42;;;;;;;;;;5113157;28;20360;-63
2021/03/13 14:35:49;;;;;;;3.65;1.45;;;;;;;;;;5094747;28;20523;-61